sensor_id;sensor_type;location;lat;lon;timestamp;P1;durP1;ratioP1;P2;durP2;ratioP2
58101;SDS011;52034;51.926;6.320;2023-09-18T00:00:54;20.93;;;18.93;;
58101;SDS011;52034;51.926;6.320;2023-09-18T00:01:56;21.00;;;18.90;;
58101;SDS011;52034;51.926;6.320;2023-09-18T00:02:56;25.70;;;18.67;;
58101;SDS011;52034;51.926;6.320;2023-09-18T00:03:57;20.00;;;18.10;;
58101;SDS011;52034;51.926;6.320;2023-09-18T00:04:57;22.27;;;20.17;;
58101;SDS011;52034;51.926;6.320;2023-09-18T00:05:58;22.02;;;19.35;;
58101;SDS011;52034;51.926;6.320;2023-09-18T00:06:59;21.47;;;19.17;;
58101;SDS011;52034;51.926;6.320;2023-09-18T00:08:00;20.37;;;18.40;;
58101;SDS011;52034;51.926;6.320;2023-09-18T00:09:02;21.65;;;19.67;;
58101;SDS011;52034;51.926;6.320;2023-09-18T00:10:03;22.93;;;20.63;;
58101;SDS011;52034;51.926;6.320;2023-09-18T00:11:03;21.70;;;19.53;;
58101;SDS011;52034;51.926;6.320;2023-09-18T00:12:04;20.33;;;18.10;;
58101;SDS011;52034;51.926;6.320;2023-09-18T00:13:05;23.92;;;18.98;;
58101;SDS011;52034;51.926;6.320;2023-09-18T00:14:05;21.20;;;18.40;;
58101;SDS011;52034;51.926;6.320;2023-09-18T00:15:06;21.57;;;19.23;;
58101;SDS011;52034;51.926;6.320;2023-09-18T00:16:08;20.95;;;18.70;;
58101;SDS011;52034;51.926;6.320;2023-09-18T00:17:08;20.73;;;18.63;;
58101;SDS011;52034;51.926;6.320;2023-09-18T00:18:09;21.30;;;18.97;;
58101;SDS011;52034;51.926;6.320;2023-09-18T00:19:09;21.27;;;18.93;;
58101;SDS011;52034;51.926;6.320;2023-09-18T00:20:10;21.77;;;19.55;;
58101;SDS011;52034;51.926;6.320;2023-09-18T00:21:11;21.67;;;19.75;;
58101;SDS011;52034;51.926;6.320;2023-09-18T00:22:12;21.47;;;19.27;;
58101;SDS011;52034;51.926;6.320;2023-09-18T00:23:12;22.67;;;20.23;;
58101;SDS011;52034;51.926;6.320;2023-09-18T00:24:13;21.13;;;19.13;;
58101;SDS011;52034;51.926;6.320;2023-09-18T00:25:13;20.67;;;18.50;;
58101;SDS011;52034;51.926;6.320;2023-09-18T00:26:15;21.67;;;19.40;;
58101;SDS011;52034;51.926;6.320;2023-09-18T00:27:19;21.35;;;19.25;;
58101;SDS011;52034;51.926;6.320;2023-09-18T00:28:19;22.20;;;19.87;;
58101;SDS011;52034;51.926;6.320;2023-09-18T00:29:20;21.13;;;18.57;;
58101;SDS011;52034;51.926;6.320;2023-09-18T00:30:20;22.53;;;19.60;;
58101;SDS011;52034;51.926;6.320;2023-09-18T00:31:20;21.60;;;19.60;;
58101;SDS011;52034;51.926;6.320;2023-09-18T00:32:21;22.77;;;18.83;;
58101;SDS011;52034;51.926;6.320;2023-09-18T00:33:21;20.90;;;18.87;;
58101;SDS011;52034;51.926;6.320;2023-09-18T00:34:22;21.00;;;18.87;;
58101;SDS011;52034;51.926;6.320;2023-09-18T00:35:22;23.13;;;19.17;;
58101;SDS011;52034;51.926;6.320;2023-09-18T00:36:23;22.52;;;20.13;;
58101;SDS011;52034;51.926;6.320;2023-09-18T00:37:24;21.10;;;18.77;;
58101;SDS011;52034;51.926;6.320;2023-09-18T00:38:24;24.17;;;20.60;;
58101;SDS011;52034;51.926;6.320;2023-09-18T00:39:25;20.87;;;17.90;;
58101;SDS011;52034;51.926;6.320;2023-09-18T00:40:27;20.75;;;18.70;;
58101;SDS011;52034;51.926;6.320;2023-09-18T00:41:27;22.53;;;20.03;;
58101;SDS011;52034;51.926;6.320;2023-09-18T00:42:27;22.27;;;20.07;;
58101;SDS011;52034;51.926;6.320;2023-09-18T00:43:28;22.10;;;19.67;;
58101;SDS011;52034;51.926;6.320;2023-09-18T00:44:28;23.03;;;18.67;;
58101;SDS011;52034;51.926;6.320;2023-09-18T00:45:28;21.07;;;18.90;;
58101;SDS011;52034;51.926;6.320;2023-09-18T00:46:29;20.27;;;18.27;;
58101;SDS011;52034;51.926;6.320;2023-09-18T00:47:29;21.67;;;19.50;;
58101;SDS011;52034;51.926;6.320;2023-09-18T00:48:30;21.50;;;18.23;;
58101;SDS011;52034;51.926;6.320;2023-09-18T00:49:31;20.57;;;18.37;;
58101;SDS011;52034;51.926;6.320;2023-09-18T00:50:33;20.75;;;18.80;;
58101;SDS011;52034;51.926;6.320;2023-09-18T00:51:33;19.97;;;17.87;;
58101;SDS011;52034;51.926;6.320;2023-09-18T00:52:34;20.43;;;18.23;;
58101;SDS011;52034;51.926;6.320;2023-09-18T00:53:34;20.70;;;18.50;;
58101;SDS011;52034;51.926;6.320;2023-09-18T00:54:35;21.00;;;18.73;;
58101;SDS011;52034;51.926;6.320;2023-09-18T00:55:37;19.58;;;17.67;;
58101;SDS011;52034;51.926;6.320;2023-09-18T00:56:38;22.48;;;19.58;;
58101;SDS011;52034;51.926;6.320;2023-09-18T00:57:38;21.63;;;19.40;;
58101;SDS011;52034;51.926;6.320;2023-09-18T00:58:39;22.70;;;19.70;;
58101;SDS011;52034;51.926;6.320;2023-09-18T00:59:39;23.50;;;20.40;;
58101;SDS011;52034;51.926;6.320;2023-09-18T01:00:40;20.98;;;18.73;;
58101;SDS011;52034;51.926;6.320;2023-09-18T01:01:41;23.10;;;19.50;;
58101;SDS011;52034;51.926;6.320;2023-09-18T01:02:42;22.20;;;18.80;;
58101;SDS011;52034;51.926;6.320;2023-09-18T01:03:45;20.65;;;18.33;;
58101;SDS011;52034;51.926;6.320;2023-09-18T01:04:45;21.40;;;19.10;;
58101;SDS011;52034;51.926;6.320;2023-09-18T01:05:45;19.87;;;17.90;;
58101;SDS011;52034;51.926;6.320;2023-09-18T01:06:46;22.60;;;19.07;;
58101;SDS011;52034;51.926;6.320;2023-09-18T01:07:47;24.52;;;19.77;;
58101;SDS011;52034;51.926;6.320;2023-09-18T01:08:47;20.57;;;18.43;;
58101;SDS011;52034;51.926;6.320;2023-09-18T01:09:50;20.65;;;18.35;;
58101;SDS011;52034;51.926;6.320;2023-09-18T01:12:10;20.80;;;18.52;;
58101;SDS011;52034;51.926;6.320;2023-09-18T01:13:23;20.35;;;18.17;;
58101;SDS011;52034;51.926;6.320;2023-09-18T01:14:37;20.75;;;18.02;;
58101;SDS011;52034;51.926;6.320;2023-09-18T01:15:51;20.48;;;17.60;;
58101;SDS011;52034;51.926;6.320;2023-09-18T01:16:58;21.90;;;18.20;;
58101;SDS011;52034;51.926;6.320;2023-09-18T01:18:02;20.23;;;18.02;;
58101;SDS011;52034;51.926;6.320;2023-09-18T01:19:03;19.00;;;17.00;;
58101;SDS011;52034;51.926;6.320;2023-09-18T01:20:03;19.77;;;17.60;;
58101;SDS011;52034;51.926;6.320;2023-09-18T01:21:06;21.83;;;18.45;;
58101;SDS011;52034;51.926;6.320;2023-09-18T01:22:07;20.10;;;18.07;;
58101;SDS011;52034;51.926;6.320;2023-09-18T01:23:08;21.08;;;18.75;;
58101;SDS011;52034;51.926;6.320;2023-09-18T01:24:09;21.13;;;18.97;;
58101;SDS011;52034;51.926;6.320;2023-09-18T01:25:09;21.03;;;18.63;;
58101;SDS011;52034;51.926;6.320;2023-09-18T01:26:09;20.30;;;18.30;;
58101;SDS011;52034;51.926;6.320;2023-09-18T01:27:11;21.10;;;17.60;;
58101;SDS011;52034;51.926;6.320;2023-09-18T01:28:14;19.85;;;17.95;;
58101;SDS011;52034;51.926;6.320;2023-09-18T01:29:16;20.30;;;18.17;;
58101;SDS011;52034;51.926;6.320;2023-09-18T01:30:19;24.20;;;18.15;;
58101;SDS011;52034;51.926;6.320;2023-09-18T01:31:19;19.43;;;17.57;;
58101;SDS011;52034;51.926;6.320;2023-09-18T01:32:21;19.80;;;17.70;;
58101;SDS011;52034;51.926;6.320;2023-09-18T01:33:26;21.15;;;17.70;;
58101;SDS011;52034;51.926;6.320;2023-09-18T01:34:31;24.65;;;17.73;;
58101;SDS011;52034;51.926;6.320;2023-09-18T01:35:33;22.65;;;17.92;;
58101;SDS011;52034;51.926;6.320;2023-09-18T01:36:34;20.70;;;17.83;;
58101;SDS011;52034;51.926;6.320;2023-09-18T01:37:35;22.80;;;18.63;;
58101;SDS011;52034;51.926;6.320;2023-09-18T01:38:37;18.95;;;17.05;;
58101;SDS011;52034;51.926;6.320;2023-09-18T01:39:38;19.92;;;17.85;;
58101;SDS011;52034;51.926;6.320;2023-09-18T01:40:39;21.73;;;18.42;;
58101;SDS011;52034;51.926;6.320;2023-09-18T01:41:40;21.45;;;17.88;;
58101;SDS011;52034;51.926;6.320;2023-09-18T01:42:40;20.30;;;17.17;;
58101;SDS011;52034;51.926;6.320;2023-09-18T01:43:41;19.35;;;16.75;;
58101;SDS011;52034;51.926;6.320;2023-09-18T01:44:42;19.50;;;16.20;;
58101;SDS011;52034;51.926;6.320;2023-09-18T01:45:43;17.98;;;16.27;;
58101;SDS011;52034;51.926;6.320;2023-09-18T01:46:43;20.20;;;17.63;;
58101;SDS011;52034;51.926;6.320;2023-09-18T01:47:45;18.48;;;16.55;;
58101;SDS011;52034;51.926;6.320;2023-09-18T01:48:46;19.30;;;17.30;;
58101;SDS011;52034;51.926;6.320;2023-09-18T01:49:47;18.33;;;15.63;;
58101;SDS011;52034;51.926;6.320;2023-09-18T01:50:47;19.77;;;16.70;;
58101;SDS011;52034;51.926;6.320;2023-09-18T01:51:48;20.53;;;16.67;;
58101;SDS011;52034;51.926;6.320;2023-09-18T01:52:48;20.93;;;16.87;;
58101;SDS011;52034;51.926;6.320;2023-09-18T01:53:48;18.37;;;15.93;;
58101;SDS011;52034;51.926;6.320;2023-09-18T01:54:49;18.37;;;16.27;;
58101;SDS011;52034;51.926;6.320;2023-09-18T01:55:49;20.73;;;16.47;;
58101;SDS011;52034;51.926;6.320;2023-09-18T01:56:50;17.90;;;16.00;;
58101;SDS011;52034;51.926;6.320;2023-09-18T01:57:50;18.33;;;16.53;;
58101;SDS011;52034;51.926;6.320;2023-09-18T01:58:51;18.73;;;16.63;;
58101;SDS011;52034;51.926;6.320;2023-09-18T01:59:51;18.97;;;16.43;;
58101;SDS011;52034;51.926;6.320;2023-09-18T02:00:51;17.80;;;15.80;;
58101;SDS011;52034;51.926;6.320;2023-09-18T02:01:52;17.37;;;15.60;;
58101;SDS011;52034;51.926;6.320;2023-09-18T02:02:53;19.25;;;15.07;;
58101;SDS011;52034;51.926;6.320;2023-09-18T02:03:53;18.07;;;14.80;;
58101;SDS011;52034;51.926;6.320;2023-09-18T02:04:54;18.80;;;14.80;;
58101;SDS011;52034;51.926;6.320;2023-09-18T02:05:54;19.77;;;15.43;;
58101;SDS011;52034;51.926;6.320;2023-09-18T02:06:55;18.63;;;14.97;;
58101;SDS011;52034;51.926;6.320;2023-09-18T02:07:56;19.60;;;14.90;;
58101;SDS011;52034;51.926;6.320;2023-09-18T02:08:56;18.17;;;16.00;;
58101;SDS011;52034;51.926;6.320;2023-09-18T02:09:56;17.57;;;15.47;;
58101;SDS011;52034;51.926;6.320;2023-09-18T02:10:57;20.10;;;15.23;;
58101;SDS011;52034;51.926;6.320;2023-09-18T02:11:57;17.80;;;15.90;;
58101;SDS011;52034;51.926;6.320;2023-09-18T02:12:58;16.90;;;15.13;;
58101;SDS011;52034;51.926;6.320;2023-09-18T02:13:58;20.27;;;16.17;;
58101;SDS011;52034;51.926;6.320;2023-09-18T02:14:58;18.37;;;15.00;;
58101;SDS011;52034;51.926;6.320;2023-09-18T02:16:04;18.48;;;15.98;;
58101;SDS011;52034;51.926;6.320;2023-09-18T02:17:04;17.77;;;15.90;;
58101;SDS011;52034;51.926;6.320;2023-09-18T02:18:05;20.30;;;16.00;;
58101;SDS011;52034;51.926;6.320;2023-09-18T02:19:07;20.27;;;15.60;;
58101;SDS011;52034;51.926;6.320;2023-09-18T02:20:08;21.35;;;16.23;;
58101;SDS011;52034;51.926;6.320;2023-09-18T02:21:11;18.48;;;15.68;;
58101;SDS011;52034;51.926;6.320;2023-09-18T02:22:11;21.27;;;15.87;;
58101;SDS011;52034;51.926;6.320;2023-09-18T02:23:12;17.37;;;15.50;;
58101;SDS011;52034;51.926;6.320;2023-09-18T02:24:12;20.67;;;16.10;;
58101;SDS011;52034;51.926;6.320;2023-09-18T02:25:12;16.37;;;14.67;;
58101;SDS011;52034;51.926;6.320;2023-09-18T02:26:13;23.53;;;15.77;;
58101;SDS011;52034;51.926;6.320;2023-09-18T02:27:13;17.20;;;15.27;;
58101;SDS011;52034;51.926;6.320;2023-09-18T02:28:13;19.97;;;16.27;;
58101;SDS011;52034;51.926;6.320;2023-09-18T02:29:14;18.92;;;15.10;;
58101;SDS011;52034;51.926;6.320;2023-09-18T02:30:15;20.50;;;14.87;;
58101;SDS011;52034;51.926;6.320;2023-09-18T02:31:15;19.43;;;15.70;;
58101;SDS011;52034;51.926;6.320;2023-09-18T02:32:16;18.63;;;14.93;;
58101;SDS011;52034;51.926;6.320;2023-09-18T02:33:16;22.17;;;14.77;;
58101;SDS011;52034;51.926;6.320;2023-09-18T02:34:17;18.97;;;15.27;;
58101;SDS011;52034;51.926;6.320;2023-09-18T02:35:19;19.17;;;14.45;;
58101;SDS011;52034;51.926;6.320;2023-09-18T02:36:19;17.93;;;14.53;;
58101;SDS011;52034;51.926;6.320;2023-09-18T02:37:22;20.08;;;15.05;;
58101;SDS011;52034;51.926;6.320;2023-09-18T02:38:24;16.90;;;14.95;;
58101;SDS011;52034;51.926;6.320;2023-09-18T02:39:25;15.10;;;13.60;;
58101;SDS011;52034;51.926;6.320;2023-09-18T02:40:26;19.00;;;15.03;;
58101;SDS011;52034;51.926;6.320;2023-09-18T02:41:26;16.57;;;14.60;;
58101;SDS011;52034;51.926;6.320;2023-09-18T02:42:26;22.77;;;14.90;;
58101;SDS011;52034;51.926;6.320;2023-09-18T02:43:27;17.40;;;14.77;;
58101;SDS011;52034;51.926;6.320;2023-09-18T02:44:27;19.07;;;14.43;;
58101;SDS011;52034;51.926;6.320;2023-09-18T02:45:28;23.57;;;15.57;;
58101;SDS011;52034;51.926;6.320;2023-09-18T02:46:28;14.83;;;13.37;;
58101;SDS011;52034;51.926;6.320;2023-09-18T02:47:29;15.57;;;13.77;;
58101;SDS011;52034;51.926;6.320;2023-09-18T02:48:30;20.90;;;13.63;;
58101;SDS011;52034;51.926;6.320;2023-09-18T02:49:30;17.77;;;14.13;;
58101;SDS011;52034;51.926;6.320;2023-09-18T02:50:31;15.27;;;13.67;;
58101;SDS011;52034;51.926;6.320;2023-09-18T02:51:31;15.97;;;13.73;;
58101;SDS011;52034;51.926;6.320;2023-09-18T02:52:32;17.43;;;13.53;;
58101;SDS011;52034;51.926;6.320;2023-09-18T02:53:32;16.27;;;13.60;;
58101;SDS011;52034;51.926;6.320;2023-09-18T02:54:32;16.20;;;13.50;;
58101;SDS011;52034;51.926;6.320;2023-09-18T02:55:33;21.00;;;14.57;;
58101;SDS011;52034;51.926;6.320;2023-09-18T02:56:33;18.30;;;14.63;;
58101;SDS011;52034;51.926;6.320;2023-09-18T02:57:33;16.23;;;13.73;;
58101;SDS011;52034;51.926;6.320;2023-09-18T02:58:33;18.53;;;14.10;;
58101;SDS011;52034;51.926;6.320;2023-09-18T02:59:34;18.23;;;13.80;;
58101;SDS011;52034;51.926;6.320;2023-09-18T03:00:34;16.73;;;12.90;;
58101;SDS011;52034;51.926;6.320;2023-09-18T03:01:35;15.40;;;12.73;;
58101;SDS011;52034;51.926;6.320;2023-09-18T03:02:35;15.70;;;13.13;;
58101;SDS011;52034;51.926;6.320;2023-09-18T03:03:35;16.30;;;14.13;;
58101;SDS011;52034;51.926;6.320;2023-09-18T03:04:36;18.70;;;13.43;;
58101;SDS011;52034;51.926;6.320;2023-09-18T03:05:38;18.38;;;13.07;;
58101;SDS011;52034;51.926;6.320;2023-09-18T03:06:40;17.70;;;13.63;;
58101;SDS011;52034;51.926;6.320;2023-09-18T03:07:41;17.95;;;13.32;;
58101;SDS011;52034;51.926;6.320;2023-09-18T03:08:42;20.37;;;13.60;;
58101;SDS011;52034;51.926;6.320;2023-09-18T03:09:43;17.52;;;12.93;;
58101;SDS011;52034;51.926;6.320;2023-09-18T03:10:43;18.53;;;13.70;;
58101;SDS011;52034;51.926;6.320;2023-09-18T03:11:44;15.13;;;13.43;;
58101;SDS011;52034;51.926;6.320;2023-09-18T03:12:47;16.73;;;13.00;;
58101;SDS011;52034;51.926;6.320;2023-09-18T03:13:48;16.67;;;12.43;;
58101;SDS011;52034;51.926;6.320;2023-09-18T03:14:51;20.88;;;13.10;;
58101;SDS011;52034;51.926;6.320;2023-09-18T03:15:51;15.77;;;12.90;;
58101;SDS011;52034;51.926;6.320;2023-09-18T03:16:52;16.97;;;13.63;;
58101;SDS011;52034;51.926;6.320;2023-09-18T03:17:52;19.13;;;12.87;;
58101;SDS011;52034;51.926;6.320;2023-09-18T03:18:52;18.57;;;13.17;;
58101;SDS011;52034;51.926;6.320;2023-09-18T03:19:53;20.40;;;12.87;;
58101;SDS011;52034;51.926;6.320;2023-09-18T03:20:53;16.93;;;12.73;;
58101;SDS011;52034;51.926;6.320;2023-09-18T03:21:54;19.88;;;13.50;;
58101;SDS011;52034;51.926;6.320;2023-09-18T03:22:56;16.37;;;12.80;;
58101;SDS011;52034;51.926;6.320;2023-09-18T03:23:58;19.20;;;13.18;;
58101;SDS011;52034;51.926;6.320;2023-09-18T03:24:58;17.30;;;13.10;;
58101;SDS011;52034;51.926;6.320;2023-09-18T03:25:58;15.47;;;12.70;;
58101;SDS011;52034;51.926;6.320;2023-09-18T03:28:00;16.85;;;12.35;;
58101;SDS011;52034;51.926;6.320;2023-09-18T03:29:04;16.33;;;11.85;;
58101;SDS011;52034;51.926;6.320;2023-09-18T03:30:05;18.27;;;12.75;;
58101;SDS011;52034;51.926;6.320;2023-09-18T03:32:08;20.63;;;11.82;;
58101;SDS011;52034;51.926;6.320;2023-09-18T03:33:12;17.45;;;12.40;;
58101;SDS011;52034;51.926;6.320;2023-09-18T03:34:12;14.73;;;11.67;;
58101;SDS011;52034;51.926;6.320;2023-09-18T03:35:13;14.40;;;11.52;;
58101;SDS011;52034;51.926;6.320;2023-09-18T03:36:21;15.90;;;11.73;;
58101;SDS011;52034;51.926;6.320;2023-09-18T03:37:23;16.98;;;11.88;;
58101;SDS011;52034;51.926;6.320;2023-09-18T03:38:24;13.43;;;11.33;;
58101;SDS011;52034;51.926;6.320;2023-09-18T03:39:25;15.07;;;11.17;;
58101;SDS011;52034;51.926;6.320;2023-09-18T03:40:25;14.63;;;11.70;;
58101;SDS011;52034;51.926;6.320;2023-09-18T03:41:25;18.40;;;11.63;;
58101;SDS011;52034;51.926;6.320;2023-09-18T03:42:26;16.63;;;11.50;;
58101;SDS011;52034;51.926;6.320;2023-09-18T03:43:26;18.27;;;11.93;;
58101;SDS011;52034;51.926;6.320;2023-09-18T03:44:26;18.53;;;11.77;;
58101;SDS011;52034;51.926;6.320;2023-09-18T03:45:27;18.27;;;11.33;;
58101;SDS011;52034;51.926;6.320;2023-09-18T03:46:28;16.45;;;11.50;;
58101;SDS011;52034;51.926;6.320;2023-09-18T03:47:28;15.07;;;11.13;;
58101;SDS011;52034;51.926;6.320;2023-09-18T03:48:29;16.40;;;11.90;;
58101;SDS011;52034;51.926;6.320;2023-09-18T03:49:30;16.05;;;12.10;;
58101;SDS011;52034;51.926;6.320;2023-09-18T03:50:31;18.27;;;11.77;;
58101;SDS011;52034;51.926;6.320;2023-09-18T03:51:32;19.70;;;11.93;;
58101;SDS011;52034;51.926;6.320;2023-09-18T03:52:32;20.40;;;12.20;;
58101;SDS011;52034;51.926;6.320;2023-09-18T03:53:32;16.07;;;11.70;;
58101;SDS011;52034;51.926;6.320;2023-09-18T03:54:33;20.52;;;12.05;;
58101;SDS011;52034;51.926;6.320;2023-09-18T03:55:34;17.13;;;12.13;;
58101;SDS011;52034;51.926;6.320;2023-09-18T03:56:34;16.23;;;11.10;;
58101;SDS011;52034;51.926;6.320;2023-09-18T03:57:35;16.77;;;12.00;;
58101;SDS011;52034;51.926;6.320;2023-09-18T03:58:36;17.27;;;12.23;;
58101;SDS011;52034;51.926;6.320;2023-09-18T03:59:37;21.47;;;12.50;;
58101;SDS011;52034;51.926;6.320;2023-09-18T04:00:37;15.80;;;12.10;;
58101;SDS011;52034;51.926;6.320;2023-09-18T04:01:37;17.43;;;11.90;;
58101;SDS011;52034;51.926;6.320;2023-09-18T04:02:38;12.63;;;11.30;;
58101;SDS011;52034;51.926;6.320;2023-09-18T04:03:38;17.47;;;11.67;;
58101;SDS011;52034;51.926;6.320;2023-09-18T04:04:38;19.33;;;11.93;;
58101;SDS011;52034;51.926;6.320;2023-09-18T04:05:39;16.37;;;10.60;;
58101;SDS011;52034;51.926;6.320;2023-09-18T04:06:40;14.90;;;10.90;;
58101;SDS011;52034;51.926;6.320;2023-09-18T04:07:42;17.20;;;11.30;;
58101;SDS011;52034;51.926;6.320;2023-09-18T04:08:46;16.00;;;10.48;;
58101;SDS011;52034;51.926;6.320;2023-09-18T04:09:46;12.40;;;10.17;;
58101;SDS011;52034;51.926;6.320;2023-09-18T04:10:47;19.77;;;10.40;;
58101;SDS011;52034;51.926;6.320;2023-09-18T04:11:48;15.82;;;10.32;;
58101;SDS011;52034;51.926;6.320;2023-09-18T04:12:49;15.93;;;10.20;;
58101;SDS011;52034;51.926;6.320;2023-09-18T04:13:50;18.70;;;10.52;;
58101;SDS011;52034;51.926;6.320;2023-09-18T04:14:51;17.17;;;11.03;;
58101;SDS011;52034;51.926;6.320;2023-09-18T04:15:51;19.67;;;10.97;;
58101;SDS011;52034;51.926;6.320;2023-09-18T04:16:56;19.73;;;11.20;;
58101;SDS011;52034;51.926;6.320;2023-09-18T04:17:57;17.90;;;11.77;;
58101;SDS011;52034;51.926;6.320;2023-09-18T04:18:57;15.37;;;11.23;;
58101;SDS011;52034;51.926;6.320;2023-09-18T04:19:57;16.00;;;11.27;;
58101;SDS011;52034;51.926;6.320;2023-09-18T04:20:58;21.17;;;11.63;;
58101;SDS011;52034;51.926;6.320;2023-09-18T04:21:58;17.30;;;10.53;;
58101;SDS011;52034;51.926;6.320;2023-09-18T04:24:27;16.17;;;10.07;;
58101;SDS011;52034;51.926;6.320;2023-09-18T04:25:27;16.60;;;10.53;;
58101;SDS011;52034;51.926;6.320;2023-09-18T04:26:27;12.60;;;8.93;;
58101;SDS011;52034;51.926;6.320;2023-09-18T04:27:31;13.77;;;9.77;;
58101;SDS011;52034;51.926;6.320;2023-09-18T04:28:31;12.47;;;9.10;;
58101;SDS011;52034;51.926;6.320;2023-09-18T04:29:32;15.73;;;9.70;;
58101;SDS011;52034;51.926;6.320;2023-09-18T04:30:33;17.40;;;9.70;;
58101;SDS011;52034;51.926;6.320;2023-09-18T04:31:33;15.30;;;9.90;;
58101;SDS011;52034;51.926;6.320;2023-09-18T04:32:35;17.33;;;10.33;;
58101;SDS011;52034;51.926;6.320;2023-09-18T04:33:36;20.10;;;10.15;;
58101;SDS011;52034;51.926;6.320;2023-09-18T04:34:37;15.87;;;8.83;;
58101;SDS011;52034;51.926;6.320;2023-09-18T04:35:38;17.43;;;9.37;;
58101;SDS011;52034;51.926;6.320;2023-09-18T04:36:39;14.85;;;9.60;;
58101;SDS011;52034;51.926;6.320;2023-09-18T04:37:40;21.93;;;10.40;;
58101;SDS011;52034;51.926;6.320;2023-09-18T04:38:42;12.68;;;9.30;;
58101;SDS011;52034;51.926;6.320;2023-09-18T04:39:43;11.53;;;9.43;;
58101;SDS011;52034;51.926;6.320;2023-09-18T04:40:43;15.13;;;9.43;;
58101;SDS011;52034;51.926;6.320;2023-09-18T04:41:43;16.87;;;9.57;;
58101;SDS011;52034;51.926;6.320;2023-09-18T04:42:44;13.53;;;9.60;;
58101;SDS011;52034;51.926;6.320;2023-09-18T04:43:44;13.00;;;9.77;;
58101;SDS011;52034;51.926;6.320;2023-09-18T04:44:45;12.30;;;9.47;;
58101;SDS011;52034;51.926;6.320;2023-09-18T04:45:46;15.50;;;9.88;;
58101;SDS011;52034;51.926;6.320;2023-09-18T04:46:47;14.35;;;10.20;;
58101;SDS011;52034;51.926;6.320;2023-09-18T04:47:48;13.18;;;9.07;;
58101;SDS011;52034;51.926;6.320;2023-09-18T04:48:49;20.73;;;10.10;;
58101;SDS011;52034;51.926;6.320;2023-09-18T04:49:49;18.90;;;10.10;;
58101;SDS011;52034;51.926;6.320;2023-09-18T04:50:50;12.80;;;9.43;;
58101;SDS011;52034;51.926;6.320;2023-09-18T04:51:51;14.03;;;9.60;;
58101;SDS011;52034;51.926;6.320;2023-09-18T04:52:51;13.47;;;8.70;;
58101;SDS011;52034;51.926;6.320;2023-09-18T04:53:54;15.98;;;9.48;;
58101;SDS011;52034;51.926;6.320;2023-09-18T04:54:54;13.43;;;9.70;;
58101;SDS011;52034;51.926;6.320;2023-09-18T04:55:55;16.07;;;9.53;;
58101;SDS011;52034;51.926;6.320;2023-09-18T04:56:55;16.17;;;8.40;;
58101;SDS011;52034;51.926;6.320;2023-09-18T04:57:56;14.63;;;9.77;;
58101;SDS011;52034;51.926;6.320;2023-09-18T04:58:58;14.55;;;9.10;;
58101;SDS011;52034;51.926;6.320;2023-09-18T04:59:58;15.20;;;9.10;;
58101;SDS011;52034;51.926;6.320;2023-09-18T05:00:59;15.37;;;9.17;;
58101;SDS011;52034;51.926;6.320;2023-09-18T05:02:00;20.65;;;9.73;;
58101;SDS011;52034;51.926;6.320;2023-09-18T05:03:01;13.10;;;10.20;;
58101;SDS011;52034;51.926;6.320;2023-09-18T05:04:01;15.40;;;9.70;;
58101;SDS011;52034;51.926;6.320;2023-09-18T05:05:01;23.13;;;10.13;;
58101;SDS011;52034;51.926;6.320;2023-09-18T05:07:04;13.75;;;9.18;;
58101;SDS011;52034;51.926;6.320;2023-09-18T05:08:06;15.33;;;8.97;;
58101;SDS011;52034;51.926;6.320;2023-09-18T05:09:07;16.40;;;9.55;;
58101;SDS011;52034;51.926;6.320;2023-09-18T05:10:08;12.53;;;8.90;;
58101;SDS011;52034;51.926;6.320;2023-09-18T05:11:08;13.43;;;9.82;;
58101;SDS011;52034;51.926;6.320;2023-09-18T05:12:09;16.50;;;10.13;;
58101;SDS011;52034;51.926;6.320;2023-09-18T05:13:13;12.50;;;9.30;;
58101;SDS011;52034;51.926;6.320;2023-09-18T05:14:13;14.87;;;9.70;;
58101;SDS011;52034;51.926;6.320;2023-09-18T05:15:16;14.25;;;9.90;;
58101;SDS011;52034;51.926;6.320;2023-09-18T05:16:16;13.73;;;9.27;;
58101;SDS011;52034;51.926;6.320;2023-09-18T05:17:17;13.68;;;10.02;;
58101;SDS011;52034;51.926;6.320;2023-09-18T05:18:18;14.93;;;10.13;;
58101;SDS011;52034;51.926;6.320;2023-09-18T05:19:18;20.13;;;9.17;;
58101;SDS011;52034;51.926;6.320;2023-09-18T05:20:18;13.23;;;8.70;;
58101;SDS011;52034;51.926;6.320;2023-09-18T05:21:19;13.80;;;9.40;;
58101;SDS011;52034;51.926;6.320;2023-09-18T05:22:24;15.82;;;9.73;;
58101;SDS011;52034;51.926;6.320;2023-09-18T05:23:24;17.03;;;9.07;;
58101;SDS011;52034;51.926;6.320;2023-09-18T05:24:25;15.40;;;9.30;;
58101;SDS011;52034;51.926;6.320;2023-09-18T05:25:27;15.60;;;9.35;;
58101;SDS011;52034;51.926;6.320;2023-09-18T05:26:31;16.02;;;9.52;;
58101;SDS011;52034;51.926;6.320;2023-09-18T05:27:32;17.67;;;9.23;;
58101;SDS011;52034;51.926;6.320;2023-09-18T05:28:32;14.00;;;9.30;;
58101;SDS011;52034;51.926;6.320;2023-09-18T05:29:33;14.03;;;9.67;;
58101;SDS011;52034;51.926;6.320;2023-09-18T05:30:36;18.13;;;8.65;;
58101;SDS011;52034;51.926;6.320;2023-09-18T05:31:38;17.02;;;9.25;;
58101;SDS011;52034;51.926;6.320;2023-09-18T05:32:38;15.60;;;9.50;;
58101;SDS011;52034;51.926;6.320;2023-09-18T05:33:39;14.40;;;9.00;;
58101;SDS011;52034;51.926;6.320;2023-09-18T05:34:39;10.90;;;7.80;;
58101;SDS011;52034;51.926;6.320;2023-09-18T05:35:40;17.60;;;8.43;;
58101;SDS011;52034;51.926;6.320;2023-09-18T05:36:42;13.95;;;8.50;;
58101;SDS011;52034;51.926;6.320;2023-09-18T05:37:42;13.97;;;8.30;;
58101;SDS011;52034;51.926;6.320;2023-09-18T05:38:43;11.23;;;7.82;;
58101;SDS011;52034;51.926;6.320;2023-09-18T05:39:44;12.77;;;8.17;;
58101;SDS011;52034;51.926;6.320;2023-09-18T05:40:44;15.13;;;8.00;;
58101;SDS011;52034;51.926;6.320;2023-09-18T05:41:45;9.30;;;7.23;;
58101;SDS011;52034;51.926;6.320;2023-09-18T05:42:45;13.90;;;8.00;;
58101;SDS011;52034;51.926;6.320;2023-09-18T05:43:45;11.37;;;7.63;;
58101;SDS011;52034;51.926;6.320;2023-09-18T05:44:46;13.70;;;7.50;;
58101;SDS011;52034;51.926;6.320;2023-09-18T05:45:46;14.17;;;7.70;;
58101;SDS011;52034;51.926;6.320;2023-09-18T05:46:49;11.80;;;7.07;;
58101;SDS011;52034;51.926;6.320;2023-09-18T05:47:50;12.90;;;7.63;;
58101;SDS011;52034;51.926;6.320;2023-09-18T05:48:50;16.90;;;7.43;;
58101;SDS011;52034;51.926;6.320;2023-09-18T05:49:50;12.67;;;7.57;;
58101;SDS011;52034;51.926;6.320;2023-09-18T05:50:51;15.23;;;7.23;;
58101;SDS011;52034;51.926;6.320;2023-09-18T05:51:52;14.80;;;7.38;;
58101;SDS011;52034;51.926;6.320;2023-09-18T05:52:53;15.67;;;7.70;;
58101;SDS011;52034;51.926;6.320;2023-09-18T05:53:53;16.10;;;8.07;;
58101;SDS011;52034;51.926;6.320;2023-09-18T05:54:54;11.17;;;6.97;;
58101;SDS011;52034;51.926;6.320;2023-09-18T05:55:54;10.97;;;7.03;;
58101;SDS011;52034;51.926;6.320;2023-09-18T05:56:56;11.48;;;6.88;;
58101;SDS011;52034;51.926;6.320;2023-09-18T05:57:57;13.13;;;7.47;;
58101;SDS011;52034;51.926;6.320;2023-09-18T05:58:57;11.63;;;6.70;;
58101;SDS011;52034;51.926;6.320;2023-09-18T05:59:57;14.13;;;7.53;;
58101;SDS011;52034;51.926;6.320;2023-09-18T06:00:58;13.83;;;7.07;;
58101;SDS011;52034;51.926;6.320;2023-09-18T06:02:00;15.68;;;7.45;;
58101;SDS011;52034;51.926;6.320;2023-09-18T06:03:00;13.20;;;6.53;;
58101;SDS011;52034;51.926;6.320;2023-09-18T06:04:01;12.27;;;7.03;;
58101;SDS011;52034;51.926;6.320;2023-09-18T06:05:03;15.07;;;7.20;;